Time;durP1;ratioP1;P1;durP2;ratioP2;P2;SDS_P1;SDS_P2;PMS_P1;PMS_P2;Temp;Humidity;BMP_temperature;BMP_pressure;BME280_temperature;BME280_humidity;BME280_pressure;Samples;Min_cycle;Max_cycle;Signal;HPM_P1;HPM_P2
2023/06/12 00:00:51;;;;;;;1999.90;999.90;;;18.20;99.90;;;;;;5077541;28;20020;-78
2023/06/12 00:03:18;;;;;;;1999.90;999.90;;;18.20;99.90;;;;;;5090220;28;20407;-78
2023/06/12 00:05:44;;;;;;;1999.90;999.90;;;18.10;99.90;;;;;;5075382;28;20044;-78
2023/06/12 00:08:13;;;;;;;1999.90;999.90;;;18.10;99.90;;;;;;5075915;28;20387;-74
2023/06/12 00:10:40;;;;;;;1999.90;999.90;;;18.10;99.90;;;;;;5055651;28;20025;-74
2023/06/12 00:13:08;;;;;;;1999.90;999.90;;;18.10;99.90;;;;;;5067010;28;20539;-74
2023/06/12 00:15:34;;;;;;;1999.90;999.90;;;18.10;99.90;;;;;;5075284;28;20365;-73
2023/06/12 00:18:00;;;;;;;1999.90;999.90;;;18.10;99.90;;;;;;5075474;28;20107;-74
2023/06/12 00:20:27;;;;;;;1999.90;999.90;;;18.10;99.90;;;;;;5075447;28;20498;-73
2023/06/12 00:22:53;;;;;;;1999.90;999.90;;;18.10;99.90;;;;;;5075166;28;20047;-78
2023/06/12 00:25:19;;;;;;;1999.90;999.90;;;18.10;99.90;;;;;;5074592;28;20449;-78
2023/06/12 00:27:45;;;;;;;1999.90;999.90;;;18.10;99.90;;;;;;5075298;28;20074;-78
2023/06/12 00:30:12;;;;;;;1999.90;999.90;;;18.00;99.90;;;;;;5075247;28;20426;-78
2023/06/12 00:32:37;;;;;;;1999.90;999.90;;;18.00;99.90;;;;;;5075426;28;20023;-78
2023/06/12 00:35:03;;;;;;;1999.90;999.90;;;18.00;99.90;;;;;;5075119;28;20396;-73
2023/06/12 00:37:30;;;;;;;1999.90;999.90;;;17.90;99.90;;;;;;5075391;28;20023;-74
2023/06/12 00:39:55;;;;;;;1999.90;999.90;;;17.90;99.90;;;;;;5075080;28;20495;-73
2023/06/12 00:42:21;;;;;;;1999.90;999.90;;;17.90;99.90;;;;;;5075374;28;20081;-73
2023/06/12 00:44:47;;;;;;;1999.90;999.90;;;17.90;99.90;;;;;;5075250;28;20086;-78
2023/06/12 00:47:14;;;;;;;1999.90;999.90;;;17.80;99.90;;;;;;5085542;28;20099;-74
2023/06/12 00:49:40;;;;;;;1999.90;999.90;;;17.80;99.90;;;;;;5095323;28;20070;-74
2023/06/12 00:52:11;;;;;;;1999.90;999.90;;;17.80;99.90;;;;;;5095154;28;20026;-78
2023/06/12 00:54:38;;;;;;;1999.90;999.90;;;17.80;99.90;;;;;;5095244;28;20021;-74
2023/06/12 00:57:07;;;;;;;1999.90;999.90;;;17.80;99.90;;;;;;5095414;28;20028;-79
2023/06/12 00:59:33;;;;;;;1999.90;999.90;;;17.70;99.90;;;;;;5094985;28;20035;-73
2023/06/12 01:02:00;;;;;;;1999.90;999.90;;;17.70;99.90;;;;;;5095162;28;20027;-73
2023/06/12 01:04:28;;;;;;;1999.90;999.90;;;17.70;99.90;;;;;;5079267;28;20082;-73
2023/06/12 01:07:10;;;;;;;1999.90;999.90;;;17.70;99.90;;;;;;5074496;28;20044;-79
2023/06/12 01:10:10;;;;;;;1999.90;999.90;;;17.70;99.90;;;;;;5074409;28;20036;-79
2023/06/12 01:12:36;;;;;;;1999.90;999.90;;;17.70;99.90;;;;;;5074557;28;20028;-74
2023/06/12 01:15:02;;;;;;;1999.90;999.90;;;17.60;99.90;;;;;;5074636;28;20024;-73
2023/06/12 01:17:29;;;;;;;1999.90;999.90;;;17.60;99.90;;;;;;5074421;28;20027;-73
2023/06/12 01:19:57;;;;;;;1999.90;999.90;;;17.60;99.90;;;;;;5073479;28;20078;-78
2023/06/12 01:22:26;;;;;;;1999.90;999.90;;;17.60;99.90;;;;;;5074476;28;20085;-78
2023/06/12 01:24:58;;;;;;;1999.90;999.90;;;17.50;99.90;;;;;;5074118;28;20028;-78
2023/06/12 01:27:27;;;;;;;1999.90;999.90;;;17.50;99.90;;;;;;5073444;28;20020;-73
2023/06/12 01:30:30;;;;;;;1999.90;999.90;;;17.50;99.90;;;;;;5055972;28;20430;-74
2023/06/12 01:33:02;;;;;;;1999.90;999.90;;;17.40;99.90;;;;;;5074568;28;20047;-73
2023/06/12 01:35:30;;;;;;;1999.90;999.90;;;17.40;99.90;;;;;;5074040;28;20027;-74
2023/06/12 01:38:06;;;;;;;1999.90;999.90;;;17.30;99.90;;;;;;5073850;28;20021;-78
2023/06/12 01:40:32;;;;;;;1999.90;999.90;;;17.30;99.90;;;;;;5073862;28;20023;-73
2023/06/12 01:42:58;;;;;;;1999.90;999.90;;;17.20;99.90;;;;;;5074208;28;20016;-74
2023/06/12 01:45:25;;;;;;;1999.90;999.90;;;17.20;99.90;;;;;;5073974;28;20032;-73
2023/06/12 01:47:50;;;;;;;1999.90;999.90;;;17.20;99.90;;;;;;5089637;28;20024;-79
2023/06/12 01:50:16;;;;;;;1999.90;999.90;;;17.20;99.90;;;;;;5094003;28;20391;-79
2023/06/12 01:52:42;;;;;;;1999.90;999.90;;;17.20;99.90;;;;;;5094335;28;20055;-78
2023/06/12 01:55:09;;;;;;;1999.90;999.90;;;17.20;99.90;;;;;;5093985;28;20012;-73
2023/06/12 01:57:36;;;;;;;1999.90;999.90;;;17.20;99.90;;;;;;5093909;28;20043;-73
2023/06/12 02:00:04;;;;;;;1999.90;999.90;;;17.10;99.90;;;;;;5093640;28;20059;-78
2023/06/12 02:02:32;;;;;;;1999.90;999.90;;;17.10;99.90;;;;;;5093836;28;20020;-78
2023/06/12 02:04:58;;;;;;;1999.90;999.90;;;17.10;99.90;;;;;;5074193;28;20024;-78
2023/06/12 02:07:24;;;;;;;1999.90;999.90;;;17.10;99.90;;;;;;5073107;28;20550;-73
2023/06/12 02:09:49;;;;;;;1999.90;999.90;;;17.00;99.90;;;;;;5073117;28;20078;-73
2023/06/12 02:12:15;;;;;;;1999.90;999.90;;;17.00;99.90;;;;;;5073156;28;20429;-78
2023/06/12 02:14:41;;;;;;;1999.90;999.90;;;17.00;99.90;;;;;;5072909;28;20434;-78
2023/06/12 02:17:07;;;;;;;1999.90;999.90;;;16.90;99.90;;;;;;5073012;28;20051;-73
2023/06/12 02:19:33;;;;;;;1999.90;999.90;;;16.90;99.90;;;;;;5073244;28;20415;-73
2023/06/12 02:21:59;;;;;;;1999.90;999.90;;;16.90;99.90;;;;;;5073211;28;20115;-74
2023/06/12 02:24:29;;;;;;;1999.90;999.90;;;16.80;99.90;;;;;;5072863;28;20098;-78
2023/06/12 02:26:55;;;;;;;1999.90;999.90;;;16.80;99.90;;;;;;5072243;28;20050;-78
2023/06/12 02:29:21;;;;;;;1999.90;999.90;;;16.80;99.90;;;;;;5073600;28;20480;-78
2023/06/12 02:31:47;;;;;;;1999.90;999.90;;;16.80;99.90;;;;;;5072952;28;20024;-73
2023/06/12 02:34:12;;;;;;;1999.90;999.90;;;16.70;99.90;;;;;;5073244;28;20029;-74
2023/06/12 02:36:39;;;;;;;1999.90;999.90;;;16.70;99.90;;;;;;5072987;28;20031;-79
2023/06/12 02:39:12;;;;;;;1999.90;999.90;;;16.70;99.90;;;;;;5073198;28;20502;-78
2023/06/12 02:41:41;;;;;;;1999.90;999.90;;;16.70;99.90;;;;;;5072883;28;20027;-78
2023/06/12 02:44:07;;;;;;;1999.90;999.90;;;16.60;99.90;;;;;;5072830;28;20039;-79
2023/06/12 02:46:33;;;;;;;1999.90;999.90;;;16.50;99.90;;;;;;5077525;28;20028;-73
2023/06/12 02:48:59;;;;;;;1999.90;999.90;;;16.60;99.90;;;;;;5093348;28;20028;-73
2023/06/12 02:51:24;;;;;;;1999.90;999.90;;;16.60;99.90;;;;;;5092984;28;20027;-78
2023/06/12 02:53:50;;;;;;;1999.90;999.90;;;16.60;99.90;;;;;;5093030;28;20031;-74
2023/06/12 02:56:16;;;;;;;1999.90;999.90;;;16.50;99.90;;;;;;5092825;28;20035;-73
2023/06/12 02:58:41;;;;;;;1999.90;999.90;;;16.50;99.90;;;;;;5074820;28;20024;-73
2023/06/12 03:01:07;;;;;;;1999.90;999.90;;;16.50;99.90;;;;;;5092976;28;20070;-73
2023/06/12 03:03:35;;;;;;;1999.90;999.90;;;16.50;99.90;;;;;;5085040;28;20323;-78
2023/06/12 03:06:01;;;;;;;1999.90;999.90;;;16.50;99.90;;;;;;5054202;28;20083;-79
2023/06/12 03:08:27;;;;;;;1999.90;999.90;;;16.50;99.90;;;;;;5072567;28;20052;-78
2023/06/12 03:10:52;;;;;;;1999.90;999.90;;;16.40;99.90;;;;;;5072659;28;20447;-73
2023/06/12 03:13:18;;;;;;;1999.90;999.90;;;16.40;99.90;;;;;;5072469;28;20078;-73
2023/06/12 03:15:44;;;;;;;1999.90;999.90;;;16.40;99.90;;;;;;5072956;28;20029;-78
2023/06/12 03:18:10;;;;;;;1999.90;999.90;;;16.40;99.90;;;;;;5072689;28;20530;-78
2023/06/12 03:20:35;;;;;;;1999.90;999.90;;;16.40;99.90;;;;;;5072453;28;20024;-78
2023/06/12 03:23:01;;;;;;;1999.90;999.90;;;16.40;99.90;;;;;;5072294;28;20551;-78
2023/06/12 03:25:27;;;;;;;1999.90;999.90;;;16.40;99.90;;;;;;5072587;28;20025;-73
2023/06/12 03:27:52;;;;;;;1999.90;999.90;;;16.40;99.90;;;;;;5072830;28;20130;-78
2023/06/12 03:30:18;;;;;;;1999.90;999.90;;;16.40;99.90;;;;;;5076717;28;20411;-78
2023/06/12 03:32:44;;;;;;;1999.90;999.90;;;16.40;99.90;;;;;;5076278;28;20036;-73
2023/06/12 03:35:10;;;;;;;1999.90;999.90;;;16.40;99.90;;;;;;5075728;28;20075;-78
2023/06/12 03:37:35;;;;;;;1999.90;999.90;;;16.40;99.90;;;;;;5076166;28;20039;-73
2023/06/12 03:40:01;;;;;;;1999.90;999.90;;;16.40;99.90;;;;;;5076103;28;20376;-74
2023/06/12 03:42:27;;;;;;;1999.90;999.90;;;16.40;99.90;;;;;;5076329;28;20032;-74
2023/06/12 03:44:52;;;;;;;1999.90;999.90;;;16.40;99.90;;;;;;5075857;28;20059;-73
2023/06/12 03:47:18;;;;;;;1999.90;999.90;;;16.40;99.90;;;;;;5085729;28;20035;-74
2023/06/12 03:49:46;;;;;;;1999.90;999.90;;;16.40;99.90;;;;;;5096511;28;20028;-74
2023/06/12 03:52:11;;;;;;;1999.90;999.90;;;16.40;99.90;;;;;;5076195;28;20032;-73
2023/06/12 03:54:38;;;;;;;1999.90;999.90;;;16.50;99.90;;;;;;5075870;28;20533;-78
2023/06/12 03:57:04;;;;;;;1999.90;999.90;;;16.50;99.90;;;;;;5076004;28;20410;-78
2023/06/12 03:59:29;;;;;;;1999.90;999.90;;;16.50;99.90;;;;;;5075808;28;20033;-79
2023/06/12 04:01:56;;;;;;;1999.90;999.90;;;16.50;99.90;;;;;;5076040;28;20066;-79
2023/06/12 04:04:22;;;;;;;1999.90;999.90;;;16.50;99.90;;;;;;5075602;28;20027;-73
2023/06/12 04:06:47;;;;;;;1999.90;999.90;;;16.50;99.90;;;;;;5075288;28;20056;-79
2023/06/12 04:09:14;;;;;;;1999.90;999.90;;;16.50;99.90;;;;;;5075629;28;20070;-79
2023/06/12 04:11:40;;;;;;;1999.90;999.90;;;16.60;99.90;;;;;;5075724;28;20021;-79
2023/06/12 04:14:06;;;;;;;1999.90;999.90;;;16.60;99.90;;;;;;5075406;28;20025;-79
2023/06/12 04:16:32;;;;;;;1999.90;999.90;;;16.60;99.90;;;;;;5075549;28;20056;-73
2023/06/12 04:19:03;;;;;;;1999.90;999.90;;;16.60;99.90;;;;;;5075003;28;20373;-79
2023/06/12 04:21:32;;;;;;;1999.90;999.90;;;16.60;99.90;;;;;;5075649;28;20023;-79
2023/06/12 04:24:03;;;;;;;1999.90;999.90;;;16.60;99.90;;;;;;5075280;28;20017;-79
2023/06/12 04:26:29;;;;;;;1999.90;999.90;;;16.60;99.90;;;;;;5075483;28;20107;-79
2023/06/12 04:28:55;;;;;;;1999.90;999.90;;;16.70;99.90;;;;;;5074604;28;20495;-74
2023/06/12 04:31:21;;;;;;;1999.90;999.90;;;16.70;99.90;;;;;;5075426;28;20050;-73
2023/06/12 04:33:51;;;;;;;1999.90;999.90;;;16.70;99.90;;;;;;5075217;28;20059;-79
2023/06/12 04:36:17;;;;;;;1999.90;999.90;;;16.70;99.90;;;;;;5075287;28;20091;-79
2023/06/12 04:38:50;;;;;;;1999.90;999.90;;;16.70;99.90;;;;;;5074889;28;20032;-79
2023/06/12 04:41:20;;;;;;;1999.90;999.90;;;16.70;99.90;;;;;;5073011;28;20487;-73
2023/06/12 04:43:49;;;;;;;1999.90;999.90;;;16.70;99.90;;;;;;5074874;28;20040;-73
2023/06/12 04:46:17;;;;;;;1999.90;999.90;;;16.80;99.90;;;;;;5076027;28;20042;-78
2023/06/12 04:48:44;;;;;;;1999.90;999.90;;;16.80;99.90;;;;;;5087767;28;20506;-79
2023/06/12 04:51:09;;;;;;;1999.90;999.90;;;16.80;99.90;;;;;;5074951;28;20021;-79
2023/06/12 04:53:39;;;;;;;1999.90;999.90;;;16.80;99.90;;;;;;5076802;28;20032;-80
2023/06/12 04:56:08;;;;;;;1999.90;999.90;;;16.80;99.90;;;;;;5075281;28;20502;-73
2023/06/12 04:58:41;;;;;;;1999.90;999.90;;;16.90;99.90;;;;;;5074705;28;20487;-73
2023/06/12 05:01:06;;;;;;;1999.90;999.90;;;16.90;99.90;;;;;;5074814;28;20024;-79
2023/06/12 05:03:33;;;;;;;1999.90;999.90;;;16.90;99.90;;;;;;5074560;28;20074;-79
2023/06/12 05:05:59;;;;;;;1999.90;999.90;;;16.90;99.90;;;;;;5074279;28;20105;-79
2023/06/12 05:08:25;;;;;;;1999.90;999.90;;;16.90;99.90;;;;;;5056321;28;20491;-73
2023/06/12 05:10:52;;;;;;;1999.90;999.90;;;17.00;99.90;;;;;;5056806;28;20423;-73
2023/06/12 05:13:17;;;;;;;1999.90;999.90;;;17.00;99.90;;;;;;5074478;28;20100;-79
2023/06/12 05:15:43;;;;;;;1999.90;999.90;;;17.00;99.90;;;;;;5074681;28;20095;-73
2023/06/12 05:18:09;;;;;;;1999.90;999.90;;;17.10;99.90;;;;;;5074285;28;20131;-79
2023/06/12 05:20:34;;;;;;;1999.90;999.90;;;17.10;99.90;;;;;;5074264;28;20052;-79
2023/06/12 05:23:00;;;;;;;1999.90;999.90;;;17.20;99.90;;;;;;5073486;28;20029;-73
2023/06/12 05:25:26;;;;;;;1999.90;999.90;;;17.20;99.90;;;;;;5074098;28;20033;-78
2023/06/12 05:27:51;;;;;;;1999.90;999.90;;;17.30;99.90;;;;;;5074067;28;20036;-79
2023/06/12 05:30:17;;;;;;;1999.90;999.90;;;17.30;99.90;;;;;;5072983;28;20020;-79
2023/06/12 05:32:42;;;;;;;1999.90;999.90;;;17.40;99.90;;;;;;5079218;28;20483;-73
2023/06/12 05:35:08;;;;;;;1999.90;999.90;;;17.40;99.90;;;;;;5057078;28;20445;-73
2023/06/12 05:37:34;;;;;;;1999.90;999.90;;;17.50;99.90;;;;;;5062268;28;20028;-74
2023/06/12 05:40:00;;;;;;;1999.90;999.90;;;17.50;99.90;;;;;;5053222;28;20407;-73
2023/06/12 05:42:25;;;;;;;1999.90;999.90;;;17.60;99.90;;;;;;5065453;28;20126;-78
2023/06/12 05:44:51;;;;;;;1999.90;999.90;;;17.60;99.90;;;;;;5071987;28;20408;-78
2023/06/12 05:47:17;;;;;;;1999.90;999.90;;;17.70;99.90;;;;;;5083793;28;20028;-73
2023/06/12 05:49:42;;;;;;;1999.90;999.90;;;17.70;99.90;;;;;;5076873;28;20035;-73
2023/06/12 05:52:08;;;;;;;1999.90;999.90;;;17.80;99.90;;;;;;5072790;28;20103;-79
2023/06/12 05:54:34;;;;;;;1999.90;999.90;;;17.80;99.90;;;;;;5054626;28;20056;-72
2023/06/12 05:57:01;;;;;;;1999.90;999.90;;;17.90;99.90;;;;;;5092027;28;20024;-79
2023/06/12 05:59:27;;;;;;;1999.90;999.90;;;18.00;99.90;;;;;;5075243;28;20460;-73
2023/06/12 06:01:52;;;;;;;1999.90;999.90;;;18.00;99.90;;;;;;5089362;28;20028;-78
2023/06/12 06:04:18;;;;;;;1999.90;999.90;;;18.10;99.90;;;;;;5078430;28;20051;-78
2023/06/12 06:06:44;;;;;;;1999.90;999.90;;;18.10;99.90;;;;;;5071182;28;20048;-78
2023/06/12 06:09:10;;;;;;;1999.90;999.90;;;18.20;99.90;;;;;;5072062;28;20398;-78
2023/06/12 06:11:36;;;;;;;1999.90;999.90;;;18.20;99.90;;;;;;5080566;28;20028;-78
2023/06/12 06:14:03;;;;;;;1999.90;999.90;;;18.30;99.90;;;;;;5087805;28;20036;-73
2023/06/12 06:16:28;;;;;;;1999.90;999.90;;;18.30;99.90;;;;;;5072160;28;20028;-73
2023/06/12 06:18:54;;;;;;;1999.90;999.90;;;18.40;99.90;;;;;;5071144;28;20051;-72
2023/06/12 06:21:20;;;;;;;1999.90;999.90;;;18.50;99.90;;;;;;5076799;28;20067;-73
2023/06/12 06:23:45;;;;;;;1999.90;999.90;;;18.60;99.90;;;;;;5072129;28;20025;-78
2023/06/12 06:26:12;;;;;;;1999.90;999.90;;;18.60;99.90;;;;;;5066478;28;20479;-77
2023/06/12 06:28:37;;;;;;;1999.90;999.90;;;18.80;99.90;;;;;;5066997;28;20488;-73
2023/06/12 06:31:06;;;;;;;1999.90;999.90;;;19.00;99.90;;;;;;5062874;28;20111;-78
2023/06/12 06:33:32;;;;;;;1999.90;999.90;;;19.10;99.90;;;;;;5074110;28;20024;-77
2023/06/12 06:35:58;;;;;;;1999.90;999.90;;;19.30;99.90;;;;;;5079801;28;20418;-77
2023/06/12 06:38:24;;;;;;;1999.90;999.90;;;19.50;99.90;;;;;;5087764;28;20020;-73
2023/06/12 06:40:53;;;;;;;1999.90;999.90;;;19.60;99.90;;;;;;5071645;28;20456;-73
2023/06/12 06:43:19;;;;;;;1999.90;999.90;;;19.80;99.90;;;;;;5071771;28;20024;-78
2023/06/12 06:45:45;;;;;;;1999.90;999.90;;;20.00;99.90;;;;;;5070000;28;20044;-73
2023/06/12 06:48:12;;;;;;;1999.90;999.90;;;20.20;99.90;;;;;;5075960;28;20445;-72
2023/06/12 06:50:38;;;;;;;1999.90;999.90;;;20.30;99.90;;;;;;5060483;28;20032;-76
2023/06/12 06:53:04;;;;;;;1999.90;999.90;;;20.40;99.90;;;;;;5069350;28;20032;-73
2023/06/12 06:55:30;;;;;;;1999.90;999.90;;;20.50;99.90;;;;;;5069538;28;20024;-73
2023/06/12 06:57:56;;;;;;;1999.90;999.90;;;20.60;99.90;;;;;;5051144;28;20105;-78
2023/06/12 07:00:22;;;;;;;1999.90;999.90;;;20.70;99.90;;;;;;5068226;28;20036;-77
2023/06/12 07:02:48;;;;;;;1999.90;999.90;;;20.80;99.90;;;;;;5069049;28;20579;-73
2023/06/12 07:05:15;;;;;;;1999.90;999.90;;;20.80;99.90;;;;;;5064886;28;20517;-78
2023/06/12 07:07:43;;;;;;;1999.90;999.90;;;20.90;99.90;;;;;;5066367;28;20032;-73
2023/06/12 07:10:09;;;;;;;1999.90;999.90;;;21.10;99.90;;;;;;5052513;28;20028;-78
2023/06/12 07:12:35;;;;;;;1999.90;999.90;;;21.20;99.90;;;;;;5069780;28;20029;-78
2023/06/12 07:15:01;;;;;;;1999.90;999.90;;;21.40;99.90;;;;;;5065719;28;20094;-78
2023/06/12 07:17:26;;;;;;;1999.90;999.90;;;21.50;99.90;;;;;;5067691;28;20032;-73
2023/06/12 07:19:52;;;;;;;1999.90;999.90;;;21.60;99.90;;;;;;5072909;28;20025;-73
2023/06/12 07:22:18;;;;;;;1999.90;999.90;;;21.80;99.90;;;;;;5067687;28;20028;-73
2023/06/12 07:24:43;;;;;;;1999.90;999.90;;;22.00;99.90;;;;;;5068126;28;20832;-78
2023/06/12 07:27:10;;;;;;;1999.90;999.90;;;22.30;99.90;;;;;;5068632;28;20093;-78
2023/06/12 07:29:35;;;;;;;1999.90;999.90;;;22.70;99.90;;;;;;5067801;28;20017;-78
2023/06/12 07:32:01;;;;;;;1999.90;999.90;;;23.60;99.90;;;;;;5071490;28;20027;-73
2023/06/12 07:34:27;;;;;;;1999.90;999.90;;;25.60;99.90;;;;;;5068540;28;20376;-73
2023/06/12 07:36:52;;;;;;;1999.90;999.90;;;27.50;99.90;;;;;;5067794;28;20648;-79
2023/06/12 07:39:18;;;;;;;1999.90;999.90;;;28.10;99.90;;;;;;5061810;28;20032;-78
2023/06/12 07:41:44;;;;;;;1999.90;999.90;;;28.40;99.90;;;;;;5065069;28;20036;-74
2023/06/12 07:44:12;;;;;;;1999.90;999.90;;;29.00;99.90;;;;;;5068713;28;20481;-74
2023/06/12 07:46:41;;;;;;;1999.90;999.90;;;30.00;99.90;;;;;;5067972;28;20082;-75
2023/06/12 07:49:07;;;;;;;1999.90;999.90;;;31.00;99.90;;;;;;5068062;28;20039;-73
2023/06/12 07:51:33;;;;;;;1999.90;999.90;;;31.40;99.90;;;;;;5068372;28;20032;-78
2023/06/12 07:53:58;;;;;;;1999.90;999.90;;;31.70;99.90;;;;;;5068452;28;20024;-77
2023/06/12 07:56:24;;;;;;;1999.90;999.90;;;31.80;99.90;;;;;;5068468;28;20031;-72
2023/06/12 07:58:51;;;;;;;1999.90;999.90;;;32.00;99.90;;;;;;5067672;28;20056;-73
2023/06/12 08:01:17;;;;;;;1999.90;999.90;;;32.10;99.90;;;;;;5065154;28;20063;-78
2023/06/12 08:03:43;;;;;;;1999.90;999.90;;;32.50;99.90;;;;;;5067836;28;20076;-72
2023/06/12 08:06:13;;;;;;;1999.90;999.90;;;32.90;99.90;;;;;;5073032;28;20088;-72
2023/06/12 08:08:47;;;;;;;1999.90;999.90;;;33.30;99.70;;;;;;5068296;28;20024;-78
2023/06/12 08:11:13;;;;;;;1999.90;999.90;;;33.50;99.30;;;;;;5066066;28;20039;-73
2023/06/12 08:13:40;;;;;;;1999.90;999.90;;;33.80;99.90;;;;;;5069639;28;20398;-77
2023/06/12 08:16:07;;;;;;;1999.90;999.90;;;34.20;99.30;;;;;;5070647;28;20028;-78
2023/06/12 08:18:32;;;;;;;1999.90;999.90;;;34.10;98.60;;;;;;5071355;28;20043;-78
2023/06/12 08:20:58;;;;;;;1999.90;999.90;;;34.10;98.10;;;;;;5071278;28;20036;-78
2023/06/12 08:23:24;;;;;;;1999.90;999.90;;;34.50;97.90;;;;;;5071506;28;20081;-72
2023/06/12 08:25:50;;;;;;;1999.90;999.90;;;34.50;96.90;;;;;;5071037;28;20480;-78
2023/06/12 08:28:15;;;;;;;1999.90;999.90;;;35.00;98.70;;;;;;5071203;28;20576;-78
2023/06/12 08:30:41;;;;;;;1999.90;999.90;;;35.50;98.20;;;;;;5069784;28;20042;-79
2023/06/12 08:33:08;;;;;;;1999.90;999.90;;;35.60;95.40;;;;;;5069996;28;20016;-78
2023/06/12 08:35:34;;;;;;;1999.90;999.90;;;36.10;95.30;;;;;;5080843;28;20029;-72
2023/06/12 08:38:01;;;;;;;1999.90;999.90;;;36.10;94.90;;;;;;5070080;28;20028;-72
2023/06/12 08:40:26;;;;;;;1999.90;999.90;;;36.00;95.00;;;;;;5069608;28;20521;-78
2023/06/12 08:42:52;;;;;;;1999.90;999.90;;;35.80;94.80;;;;;;5071138;28;20024;-79
2023/06/12 08:45:25;;;;;;;1999.90;999.90;;;35.90;94.60;;;;;;5070086;28;20266;-76
2023/06/12 08:47:52;;;;;;;1999.90;999.90;;;35.60;95.00;;;;;;5071026;28;20012;-77
2023/06/12 08:50:18;;;;;;;1999.90;999.90;;;35.40;95.10;;;;;;5070949;28;20472;-72
2023/06/12 08:52:46;;;;;;;1999.90;999.90;;;35.70;95.10;;;;;;5070143;28;20028;-72
2023/06/12 08:55:14;;;;;;;1999.90;999.90;;;35.60;94.90;;;;;;5065577;28;20029;-78
2023/06/12 08:57:41;;;;;;;1999.90;999.90;;;35.50;94.90;;;;;;5069008;28;20490;-78
2023/06/12 09:00:11;;;;;;;1999.90;999.90;;;34.70;96.70;;;;;;5067735;28;20033;-76
2023/06/12 09:02:44;;;;;;;1999.90;999.90;;;34.10;95.70;;;;;;5070576;28;20353;-72
2023/06/12 09:05:15;;;;;;;1999.90;999.90;;;34.30;96.70;;;;;;5070167;28;20475;-72
2023/06/12 09:07:43;;;;;;;1999.90;999.90;;;34.80;96.10;;;;;;5052666;28;20037;-72
2023/06/12 09:10:09;;;;;;;1999.90;999.90;;;34.60;95.90;;;;;;5070904;28;20044;-78
2023/06/12 09:12:35;;;;;;;1999.90;999.90;;;34.50;96.20;;;;;;5053054;28;20085;-78
2023/06/12 09:15:01;;;;;;;1999.90;999.90;;;34.50;95.60;;;;;;5070276;28;20024;-73
2023/06/12 09:17:28;;;;;;;1999.90;999.90;;;34.30;96.50;;;;;;5062127;28;20065;-72
2023/06/12 09:19:54;;;;;;;1999.90;999.90;;;35.30;95.40;;;;;;5069694;28;20035;-78
2023/06/12 09:22:21;;;;;;;1999.90;999.90;;;35.50;95.20;;;;;;5069625;28;20621;-79
2023/06/12 09:24:47;;;;;;;1999.90;999.90;;;35.90;95.70;;;;;;5074621;28;20029;-78
2023/06/12 09:27:14;;;;;;;1999.90;999.90;;;36.60;95.50;;;;;;5072392;28;20431;-79
2023/06/12 09:29:40;;;;;;;1999.90;999.90;;;37.10;94.20;;;;;;5069811;28;20016;-73
2023/06/12 09:32:10;;;;;;;1999.90;999.90;;;37.30;93.10;;;;;;5069734;28;20036;-79
2023/06/12 09:34:36;;;;;;;1999.90;999.90;;;36.60;93.10;;;;;;5066775;28;20103;-72
2023/06/12 09:37:05;;;;;;;1999.90;999.90;;;35.90;93.50;;;;;;5070917;28;20095;-78
2023/06/12 09:39:31;;;;;;;1999.90;999.90;;;35.90;94.00;;;;;;5070083;28;20063;-78
2023/06/12 09:41:57;;;;;;;1999.90;999.90;;;35.60;94.00;;;;;;5070475;28;20064;-73
2023/06/12 09:44:28;;;;;;;1999.90;999.90;;;36.00;94.30;;;;;;5069818;28;20028;-72
2023/06/12 09:46:59;;;;;;;1999.90;999.90;;;35.30;94.20;;;;;;5069544;28;20107;-80
2023/06/12 09:49:25;;;;;;;1999.90;999.90;;;34.90;95.30;;;;;;5068262;28;20519;-79
2023/06/12 09:51:51;;;;;;;1999.90;999.90;;;34.80;95.30;;;;;;5068323;28;20035;-80
2023/06/12 09:54:21;;;;;;;1999.90;999.90;;;35.00;95.00;;;;;;5069230;28;20031;-73
2023/06/12 09:56:48;;;;;;;1999.90;999.90;;;35.80;95.10;;;;;;5069549;28;20028;-73
2023/06/12 09:59:18;;;;;;;1999.90;999.90;;;36.60;94.40;;;;;;5069770;28;20492;-74
2023/06/12 10:01:50;;;;;;;1999.90;999.90;;;37.50;92.80;;;;;;5068990;28;20085;-81
2023/06/12 10:04:24;;;;;;;1999.90;999.90;;;38.30;92.00;;;;;;5068608;28;20028;-74
2023/06/12 10:06:52;;;;;;;1999.90;999.90;;;36.80;91.90;;;;;;5068673;28;20562;-80
2023/06/12 10:09:22;;;;;;;1999.90;999.90;;;35.90;94.00;;;;;;5069037;28;20050;-75
2023/06/12 10:11:49;;;;;;;1999.90;999.90;;;36.50;93.80;;;;;;5068979;28;20035;-78
2023/06/12 10:14:17;;;;;;;1999.90;999.90;;;36.30;93.00;;;;;;5068455;28;20499;-74
2023/06/12 10:16:45;;;;;;;1999.90;999.90;;;36.20;94.10;;;;;;5068533;28;20062;-79
2023/06/12 10:19:11;;;;;;;1999.90;999.90;;;35.90;94.00;;;;;;5068364;28;20546;-75
2023/06/12 10:21:38;;;;;;;1999.90;999.90;;;34.10;95.50;;;;;;5069031;28;20029;-74
2023/06/12 10:24:04;;;;;;;1999.90;999.90;;;32.40;98.20;;;;;;5068538;28;20078;-78
2023/06/12 10:26:31;;;;;;;1999.90;999.90;;;31.40;98.40;;;;;;5069135;28;20045;-79
2023/06/12 10:28:56;;;;;;;1999.90;999.90;;;32.20;99.00;;;;;;5069348;28;20233;-79
2023/06/12 10:31:23;;;;;;;1999.90;999.90;;;32.90;96.50;;;;;;5069108;28;20029;-77
2023/06/12 10:34:12;;;;;;;1999.90;999.90;;;32.30;97.60;;;;;;5067642;28;20020;-73
2023/06/12 10:36:42;;;;;;;1999.90;999.90;;;33.60;98.70;;;;;;5064820;28;20111;-79
2023/06/12 10:39:27;;;;;;;1999.90;999.90;;;34.20;97.70;;;;;;5069351;28;20051;-79
2023/06/12 10:41:57;;;;;;;1999.90;999.90;;;34.00;97.70;;;;;;5068137;28;20036;-79
2023/06/12 10:44:39;;;;;;;1999.90;999.90;;;33.80;97.70;;;;;;5068549;28;20029;-79
2023/06/12 10:47:15;;;;;;;1999.90;999.90;;;33.40;98.20;;;;;;5067814;28;20033;-73
2023/06/12 10:50:01;;;;;;;1999.90;999.90;;;32.70;99.80;;;;;;5072585;28;20036;-73
2023/06/12 10:52:27;;;;;;;1999.90;999.90;;;31.60;99.90;;;;;;5065650;28;20065;-79
2023/06/12 10:55:12;;;;;;;1999.90;999.90;;;31.80;99.90;;;;;;5050850;28;20028;-79
2023/06/12 10:57:38;;;;;;;1999.90;999.90;;;32.70;99.90;;;;;;5062450;28;20099;-79
2023/06/12 11:00:08;;;;;;;1999.90;999.90;;;32.20;99.90;;;;;;5068497;28;20175;-74
2023/06/12 11:02:34;;;;;;;1999.90;999.90;;;30.60;99.90;;;;;;5068721;28;20035;-76
2023/06/12 11:05:03;;;;;;;1999.90;999.90;;;30.90;99.90;;;;;;5068952;28;20599;-81
2023/06/12 11:07:31;;;;;;;1999.90;999.90;;;31.60;99.90;;;;;;5069833;28;20072;-76
2023/06/12 11:09:57;;;;;;;1999.90;999.90;;;32.40;99.90;;;;;;5072852;28;20031;-74
2023/06/12 11:12:23;;;;;;;1999.90;999.90;;;32.90;99.70;;;;;;5067409;28;20107;-74
2023/06/12 11:14:48;;;;;;;1999.90;999.90;;;32.60;99.60;;;;;;5068823;28;20029;-74
2023/06/12 11:17:14;;;;;;;1999.90;999.90;;;32.20;99.70;;;;;;5068097;28;20037;-79
2023/06/12 11:19:39;;;;;;;1999.90;999.90;;;31.50;99.90;;;;;;5069114;28;20033;-74
2023/06/12 11:22:05;;;;;;;1999.90;999.90;;;31.30;99.90;;;;;;5068315;28;20021;-79
2023/06/12 11:24:31;;;;;;;1999.90;999.90;;;31.60;99.90;;;;;;5053622;28;20419;-74
2023/06/12 11:27:00;;;;;;;1999.90;999.90;;;31.30;99.90;;;;;;5069112;28;20060;-79
2023/06/12 11:29:29;;;;;;;1999.90;999.90;;;32.10;99.90;;;;;;5072177;28;20074;-80
2023/06/12 11:32:02;;;;;;;1999.90;999.90;;;32.30;99.10;;;;;;5070730;28;20033;-75
2023/06/12 11:34:34;;;;;;;1999.90;999.90;;;33.20;98.80;;;;;;5061229;28;20060;-81
2023/06/12 11:37:17;;;;;;;1999.90;999.90;;;33.90;98.20;;;;;;5094966;28;20084;-81
2023/06/12 11:39:43;;;;;;;1999.90;999.90;;;33.70;98.00;;;;;;5081483;28;20033;-75
2023/06/12 11:42:10;;;;;;;1999.90;999.90;;;33.40;98.00;;;;;;5072877;28;20025;-75
2023/06/12 11:44:37;;;;;;;1999.90;999.90;;;33.30;98.40;;;;;;5070033;28;20036;-79
2023/06/12 11:47:04;;;;;;;1999.90;999.90;;;32.50;98.50;;;;;;5053826;28;20031;-75
2023/06/12 11:49:31;;;;;;;1999.90;999.90;;;32.40;99.20;;;;;;5070840;28;20036;-79
2023/06/12 11:51:57;;;;;;;1999.90;999.90;;;32.90;98.10;;;;;;5046258;28;20903;-74
2023/06/12 11:54:23;;;;;;;1999.90;999.90;;;33.00;98.10;;;;;;5046635;28;20488;-75
2023/06/12 11:56:49;;;;;;;1999.90;999.90;;;33.10;98.10;;;;;;5049561;28;20059;-74
2023/06/12 11:59:15;;;;;;;1999.90;999.90;;;33.40;97.00;;;;;;5046686;28;20042;-79